createdAt,value
2017-05-03T00:00:24.096Z,0
2017-05-03T00:01:33.945Z,0
2017-05-03T00:02:43.869Z,0
2017-05-03T00:03:54.113Z,0
2017-05-03T00:05:04.554Z,0
2017-05-03T00:06:14.681Z,0
2017-05-03T00:07:24.817Z,0
2017-05-03T00:08:34.973Z,0
2017-05-03T00:09:45.156Z,0
2017-05-03T00:10:55.622Z,0
2017-05-03T00:12:05.756Z,0
2017-05-03T00:13:15.899Z,0
2017-05-03T00:14:26.049Z,0
2017-05-03T00:15:36.179Z,0
2017-05-03T00:16:46.555Z,0
2017-05-03T00:17:56.723Z,0
2017-05-03T00:19:06.927Z,0
2017-05-03T00:20:17.047Z,0
2017-05-03T00:21:27.189Z,0
2017-05-03T00:22:37.621Z,0
2017-05-03T00:23:47.796Z,0
2017-05-03T00:24:57.927Z,0
2017-05-03T00:26:07.720Z,0
2017-05-03T00:27:17.967Z,0
2017-05-03T00:28:28.425Z,0
2017-05-03T00:29:38.634Z,0
2017-05-03T00:30:48.764Z,0
2017-05-03T00:31:58.905Z,0
2017-05-03T00:33:09.178Z,0
2017-05-03T00:34:19.663Z,0
2017-05-03T00:35:29.788Z,0
2017-05-03T00:36:39.914Z,0
2017-05-03T00:37:50.078Z,0
2017-05-03T00:39:00.237Z,0
2017-05-03T00:40:10.616Z,0
2017-05-03T00:41:20.853Z,0
2017-05-03T00:42:31.130Z,0
2017-05-03T00:43:41.255Z,0
2017-05-03T00:44:51.468Z,0
2017-05-03T00:46:01.879Z,0
2017-05-03T00:47:11.661Z,0
2017-05-03T00:48:21.839Z,0
2017-05-03T00:49:31.963Z,0
2017-05-03T00:50:42.149Z,0
2017-05-03T00:51:52.669Z,0
2017-05-03T00:53:02.799Z,0
2017-05-03T00:54:12.921Z,0
2017-05-03T00:55:23.140Z,0
2017-05-03T00:56:33.301Z,0
2017-05-03T00:57:43.797Z,0
2017-05-03T00:58:53.929Z,0
2017-05-03T01:00:04.928Z,0
2017-05-03T01:01:15.170Z,0
2017-05-03T01:02:25.291Z,0
2017-05-03T01:03:35.716Z,0
2017-05-03T01:04:45.892Z,0
2017-05-03T01:05:55.693Z,0
2017-05-03T01:07:05.926Z,0
2017-05-03T01:08:16.073Z,0
2017-05-03T01:09:26.515Z,0
2017-05-03T01:10:36.707Z,0
2017-05-03T01:11:47.029Z,0
2017-05-03T01:12:57.165Z,0
2017-05-03T01:14:07.299Z,0
2017-05-03T01:15:17.727Z,0
2017-05-03T01:16:27.867Z,0
2017-05-03T01:17:38.029Z,0
2017-05-03T01:18:48.277Z,0
2017-05-03T01:19:58.530Z,0
2017-05-03T01:21:08.951Z,0
2017-05-03T01:22:19.152Z,0
2017-05-03T01:23:29.280Z,0
2017-05-03T01:24:39.417Z,0
2017-05-03T01:25:49.542Z,0
2017-05-03T01:27:00.031Z,0
2017-05-03T01:28:10.180Z,0
2017-05-03T01:29:20.381Z,0
2017-05-03T01:30:30.514Z,0
2017-05-03T01:31:40.682Z,0
2017-05-03T01:32:51.151Z,0
2017-05-03T01:34:01.578Z,0
2017-05-03T01:35:11.696Z,0
2017-05-03T01:36:21.897Z,0
2017-05-03T01:37:32.020Z,0
2017-05-03T01:38:42.506Z,0
2017-05-03T01:39:52.708Z,0
2017-05-03T01:41:02.835Z,0
2017-05-03T01:42:12.966Z,0
2017-05-03T01:43:23.270Z,0
2017-05-03T01:44:33.724Z,0
2017-05-03T01:45:43.900Z,0
2017-05-03T01:46:54.039Z,0
2017-05-03T01:48:04.165Z,0
2017-05-03T01:49:14.366Z,0
2017-05-03T01:50:24.795Z,0
2017-05-03T01:51:34.935Z,0
2017-05-03T01:52:45.146Z,0
2017-05-03T01:53:55.295Z,0
2017-05-03T01:55:05.434Z,0
2017-05-03T01:56:15.860Z,0
2017-05-03T01:57:25.985Z,0
2017-05-03T01:58:36.113Z,0
2017-05-03T01:59:46.253Z,0
2017-05-03T02:00:56.385Z,0
2017-05-03T02:02:06.814Z,0
2017-05-03T02:03:17.000Z,0
2017-05-03T02:04:27.173Z,0
2017-05-03T02:05:37.314Z,0
2017-05-03T02:06:47.522Z,0
2017-05-03T02:07:58.083Z,0
2017-05-03T02:09:11.439Z,0
2017-05-03T02:10:21.593Z,0
2017-05-03T02:11:31.768Z,0
2017-05-03T02:12:41.891Z,0
2017-05-03T02:13:52.321Z,0
2017-05-03T02:15:02.466Z,0
2017-05-03T02:16:12.598Z,0
2017-05-03T02:17:22.721Z,0
2017-05-03T02:18:32.851Z,0
2017-05-03T02:19:43.286Z,0
2017-05-03T02:20:53.410Z,0
2017-05-03T02:22:03.581Z,0
2017-05-03T02:23:13.481Z,0
2017-05-03T02:24:23.617Z,0
2017-05-03T02:25:34.074Z,0
2017-05-03T02:26:44.255Z,0
2017-05-03T02:27:54.412Z,0
2017-05-03T02:29:04.551Z,0
2017-05-03T02:30:14.500Z,0
2017-05-03T02:31:24.602Z,0
2017-05-03T02:32:34.432Z,0
2017-05-03T02:33:44.287Z,0
2017-05-03T02:34:54.415Z,0
2017-05-03T02:36:04.610Z,0
2017-05-03T02:37:15.085Z,0
2017-05-03T02:38:25.212Z,0
2017-05-03T02:39:35.370Z,0
2017-05-03T02:40:45.499Z,0
2017-05-03T02:41:55.624Z,0
2017-05-03T02:43:06.094Z,0
2017-05-03T02:44:16.264Z,0
2017-05-03T02:45:26.475Z,0
2017-05-03T02:46:36.637Z,0
2017-05-03T02:47:46.774Z,0
2017-05-03T02:48:57.217Z,0
2017-05-03T02:50:07.471Z,0
2017-05-03T02:51:17.618Z,0
2017-05-03T02:52:27.808Z,0
2017-05-03T02:53:37.942Z,0
2017-05-03T02:54:48.367Z,0
2017-05-03T02:55:58.553Z,0
2017-05-03T02:57:08.682Z,0
2017-05-03T02:58:18.810Z,0
2017-05-03T02:59:28.684Z,0
2017-05-03T03:00:39.129Z,0
2017-05-03T03:01:49.303Z,0
2017-05-03T03:02:59.438Z,0
2017-05-03T03:04:09.617Z,0
2017-05-03T03:05:19.912Z,0
2017-05-03T03:06:30.344Z,4
2017-05-03T03:07:40.502Z,4
2017-05-03T03:08:50.642Z,0
2017-05-03T03:10:00.816Z,4
2017-05-03T03:11:10.964Z,4
2017-05-03T03:12:21.425Z,4
2017-05-03T03:13:31.555Z,8
2017-05-03T03:14:41.685Z,8
2017-05-03T03:15:51.810Z,8
2017-05-03T03:17:01.930Z,12
2017-05-03T03:18:12.393Z,12
2017-05-03T03:19:22.643Z,16
2017-05-03T03:20:32.859Z,20
2017-05-03T03:21:43.023Z,28
2017-05-03T03:22:53.199Z,28
2017-05-03T03:24:03.726Z,36
2017-05-03T03:25:13.888Z,40
2017-05-03T03:26:24.021Z,48
2017-05-03T03:27:34.172Z,56
2017-05-03T03:28:44.339Z,64
2017-05-03T03:29:54.831Z,72
2017-05-03T03:31:04.966Z,84
2017-05-03T03:32:15.089Z,96
2017-05-03T03:33:25.233Z,108
2017-05-03T03:34:35.536Z,120
2017-05-03T03:35:45.987Z,140
2017-05-03T03:36:56.116Z,152
2017-05-03T03:38:06.252Z,172
2017-05-03T03:39:16.387Z,192
2017-05-03T03:40:26.262Z,212
2017-05-03T03:41:36.628Z,236
2017-05-03T03:42:46.874Z,260
2017-05-03T03:43:57.019Z,292
2017-05-03T03:45:07.302Z,320
2017-05-03T03:46:17.460Z,344
2017-05-03T03:47:27.892Z,376
2017-05-03T03:48:38.022Z,412
2017-05-03T03:49:48.166Z,448
2017-05-03T03:50:58.285Z,484
2017-05-03T03:52:08.411Z,520
2017-05-03T03:53:18.880Z,560
2017-05-03T03:54:28.700Z,588
2017-05-03T03:55:38.824Z,620
2017-05-03T03:56:48.340Z,648
2017-05-03T03:57:58.506Z,680
2017-05-03T03:59:09.003Z,716
2017-05-03T04:00:19.121Z,760
2017-05-03T04:01:29.279Z,800
2017-05-03T04:02:39.472Z,836
2017-05-03T04:03:49.631Z,880
2017-05-03T04:05:00.093Z,924
2017-05-03T04:06:10.226Z,968
2017-05-03T04:07:20.500Z,1016
2017-05-03T04:08:30.288Z,1068
2017-05-03T04:09:40.418Z,1120
2017-05-03T04:10:50.840Z,1172
2017-05-03T04:12:00.972Z,1220
2017-05-03T04:13:11.126Z,1264
2017-05-03T04:14:21.363Z,1304
2017-05-03T04:15:31.539Z,1340
2017-05-03T04:16:41.924Z,1380
2017-05-03T04:17:52.089Z,1420
2017-05-03T04:19:02.275Z,1476
2017-05-03T04:20:12.444Z,1524
2017-05-03T04:21:22.633Z,1584
2017-05-03T04:22:33.071Z,1628
2017-05-03T04:23:43.231Z,1716
2017-05-03T04:24:53.351Z,1780
2017-05-03T04:26:03.490Z,1828
2017-05-03T04:27:13.660Z,1864
2017-05-03T04:28:24.125Z,1900
2017-05-03T04:29:34.255Z,1948
2017-05-03T04:30:44.436Z,1972
2017-05-03T04:31:54.561Z,1980
2017-05-03T04:33:04.725Z,2028
2017-05-03T04:34:15.190Z,2064
2017-05-03T04:35:25.378Z,2096
2017-05-03T04:36:35.504Z,2096
2017-05-03T04:37:45.658Z,2088
2017-05-03T04:38:55.816Z,2116
2017-05-03T04:40:06.260Z,2128
2017-05-03T04:41:16.653Z,2124
2017-05-03T04:42:26.789Z,2112
2017-05-03T04:43:36.933Z,2108
2017-05-03T04:44:47.102Z,2088
2017-05-03T04:45:57.575Z,2044
2017-05-03T04:47:07.729Z,2068
2017-05-03T04:48:17.869Z,2124
2017-05-03T04:49:28.004Z,2132
2017-05-03T04:50:38.205Z,2268
2017-05-03T04:51:48.594Z,2460
2017-05-03T04:52:58.735Z,2540
2017-05-03T04:54:08.558Z,2740
2017-05-03T04:55:18.714Z,2828
2017-05-03T04:56:28.843Z,2896
2017-05-03T04:57:38.892Z,3008
2017-05-03T04:58:49.082Z,3012
2017-05-03T04:59:59.206Z,3056
2017-05-03T05:01:09.419Z,3032
2017-05-03T05:02:19.534Z,3092
2017-05-03T05:03:30.064Z,3136
2017-05-03T05:04:40.202Z,3168
2017-05-03T05:05:50.450Z,3148
2017-05-03T05:07:00.594Z,3096
2017-05-03T05:08:10.732Z,3152
2017-05-03T05:09:21.134Z,3192
2017-05-03T05:10:31.272Z,3300
2017-05-03T05:11:41.394Z,3460
2017-05-03T05:12:51.565Z,3600
2017-05-03T05:14:01.761Z,3652
2017-05-03T05:15:12.185Z,3696
2017-05-03T05:16:22.341Z,3684
2017-05-03T05:17:32.475Z,3648
2017-05-03T05:18:42.626Z,3600
2017-05-03T05:19:52.779Z,3664
2017-05-03T05:21:03.191Z,3700
2017-05-03T05:22:13.442Z,3728
2017-05-03T05:23:23.579Z,3840
2017-05-03T05:24:33.754Z,3808
2017-05-03T05:25:43.920Z,3776
2017-05-03T05:26:54.400Z,3420
2017-05-03T05:28:04.630Z,3588
2017-05-03T05:29:14.828Z,3744
2017-05-03T05:30:25.023Z,3348
2017-05-03T05:31:35.145Z,3316
2017-05-03T05:32:45.563Z,3584
2017-05-03T05:33:55.724Z,3736
2017-05-03T05:35:05.923Z,4088
2017-05-03T05:36:16.075Z,4264
2017-05-03T05:37:26.282Z,4268
2017-05-03T05:38:36.729Z,4244
2017-05-03T05:39:46.861Z,4232
2017-05-03T05:40:57.020Z,3932
2017-05-03T05:42:07.219Z,4320
2017-05-03T05:43:17.360Z,4472
2017-05-03T05:44:27.756Z,4192
2017-05-03T05:45:37.954Z,4440
2017-05-03T05:46:48.234Z,4720
2017-05-03T05:47:58.422Z,5052
2017-05-03T05:49:08.592Z,5260
2017-05-03T05:50:19.043Z,5380
2017-05-03T05:51:29.229Z,5528
2017-05-03T05:52:39.545Z,5556
2017-05-03T05:53:49.695Z,5632
2017-05-03T05:54:59.820Z,5720
2017-05-03T05:56:10.246Z,5800
2017-05-03T05:57:20.494Z,5776
2017-05-03T05:58:30.699Z,5616
2017-05-03T05:59:40.885Z,5700
2017-05-03T06:00:51.030Z,5848
2017-05-03T06:02:01.555Z,5788
2017-05-03T06:03:11.738Z,5908
2017-05-03T06:04:21.969Z,6156
2017-05-03T06:05:32.140Z,6296
2017-05-03T06:06:41.935Z,6416
2017-05-03T06:07:52.396Z,6388
2017-05-03T06:09:02.598Z,6332
2017-05-03T06:10:12.726Z,6404
2017-05-03T06:11:22.876Z,6408
2017-05-03T06:12:33.034Z,6468
2017-05-03T06:13:43.602Z,6484
2017-05-03T06:14:53.815Z,6340
2017-05-03T06:16:03.944Z,6576
2017-05-03T06:17:14.171Z,6716
2017-05-03T06:18:24.351Z,6752
2017-05-03T06:19:34.737Z,6876
2017-05-03T06:20:44.872Z,6988
2017-05-03T06:21:55.010Z,7324
2017-05-03T06:23:05.149Z,7464
2017-05-03T06:24:15.282Z,7512
2017-05-03T06:25:25.727Z,7636
2017-05-03T06:26:35.872Z,7756
2017-05-03T06:27:46.003Z,7924
2017-05-03T06:28:56.146Z,8032
2017-05-03T06:30:06.279Z,8028
2017-05-03T06:31:16.728Z,8028
2017-05-03T06:32:26.900Z,7556
2017-05-03T06:33:37.317Z,7784
2017-05-03T06:34:47.448Z,7676
2017-05-03T06:35:57.584Z,7996
2017-05-03T06:37:08.052Z,8124
2017-05-03T06:38:18.247Z,7708
2017-05-03T06:39:28.420Z,7492
2017-05-03T06:40:38.557Z,7636
2017-05-03T06:41:48.758Z,7772
2017-05-03T06:42:59.335Z,7532
2017-05-03T06:44:09.688Z,7344
2017-05-03T06:45:19.828Z,7044
2017-05-03T06:46:29.959Z,7640
2017-05-03T06:47:40.205Z,8064
2017-05-03T06:48:50.693Z,7892
2017-05-03T06:50:00.916Z,8300
2017-05-03T06:51:11.045Z,8288
2017-05-03T06:52:21.328Z,8320
2017-05-03T06:53:31.514Z,8232
2017-05-03T06:54:42.010Z,8672
2017-05-03T06:55:52.142Z,8124
2017-05-03T06:57:02.340Z,9072
2017-05-03T06:58:12.549Z,10028
2017-05-03T06:59:22.792Z,9580
2017-05-03T07:00:33.291Z,9608
2017-05-03T07:01:43.419Z,9384
2017-05-03T07:02:53.674Z,8868
2017-05-03T07:04:03.933Z,8748
2017-05-03T07:05:14.229Z,10060
2017-05-03T07:06:24.671Z,9380
2017-05-03T07:07:34.859Z,11008
2017-05-03T07:08:45.007Z,9876
2017-05-03T07:09:55.336Z,8820
2017-05-03T07:11:05.466Z,8484
2017-05-03T07:12:15.899Z,8720
2017-05-03T07:13:26.098Z,8316
2017-05-03T07:14:36.324Z,8948
2017-05-03T07:15:46.468Z,9024
2017-05-03T07:16:56.617Z,9536
2017-05-03T07:18:07.046Z,10364
2017-05-03T07:19:16.846Z,9904
2017-05-03T07:20:26.983Z,9716
2017-05-03T07:21:37.110Z,9996
2017-05-03T07:22:47.296Z,10096
2017-05-03T07:23:57.765Z,9924
2017-05-03T07:25:07.974Z,10812
2017-05-03T07:26:18.257Z,10528
2017-05-03T07:27:28.377Z,10068
2017-05-03T07:28:38.562Z,10028
2017-05-03T07:29:49.180Z,10132
2017-05-03T07:30:59.392Z,10004
2017-05-03T07:32:09.580Z,9804
2017-05-03T07:33:19.710Z,9460
2017-05-03T07:34:29.895Z,10132
2017-05-03T07:35:40.306Z,9216
2017-05-03T07:36:50.439Z,10232
2017-05-03T07:38:00.608Z,10784
2017-05-03T07:39:10.823Z,11052
2017-05-03T07:40:20.959Z,10748
2017-05-03T07:41:31.391Z,11564
2017-05-03T07:42:41.561Z,10988
2017-05-03T07:43:51.687Z,10328
2017-05-03T07:45:01.791Z,13576
2017-05-03T07:46:11.995Z,15068
2017-05-03T07:47:22.534Z,14912
2017-05-03T07:48:32.717Z,11700
2017-05-03T07:49:42.843Z,10736
2017-05-03T07:50:52.989Z,12804
2017-05-03T07:52:02.810Z,12764
2017-05-03T07:53:12.939Z,12048
2017-05-03T07:54:22.738Z,12104
2017-05-03T07:55:32.894Z,12556
2017-05-03T07:56:42.709Z,13448
2017-05-03T07:57:52.850Z,12560
2017-05-03T07:59:03.400Z,12572
2017-05-03T08:00:13.322Z,15684
2017-05-03T08:01:23.667Z,13040
2017-05-03T08:02:33.862Z,12460
2017-05-03T08:03:44.030Z,16896
2017-05-03T08:04:54.474Z,14392
2017-05-03T08:06:03.922Z,16256
2017-05-03T08:07:14.057Z,17984
2017-05-03T08:08:24.627Z,16108
2017-05-03T08:09:35.084Z,16672
2017-05-03T08:10:45.566Z,20064
2017-05-03T08:11:56.411Z,23872
2017-05-03T08:13:07.219Z,24032
2017-05-03T08:14:18.108Z,16192
2017-05-03T08:15:29.026Z,15980
2017-05-03T08:16:40.228Z,22592
2017-05-03T08:17:51.063Z,22016
2017-05-03T08:19:01.981Z,21088
2017-05-03T08:20:12.849Z,22880
2017-05-03T08:21:23.807Z,30368
2017-05-03T08:22:34.970Z,18912
2017-05-03T08:23:45.822Z,19040
2017-05-03T08:24:56.726Z,19680
2017-05-03T08:26:07.624Z,17280
2017-05-03T08:27:18.522Z,16864
2017-05-03T08:28:29.630Z,19552
2017-05-03T08:29:40.526Z,26144
2017-05-03T08:30:51.421Z,24960
2017-05-03T08:32:02.253Z,28544
2017-05-03T08:33:12.748Z,30464
2017-05-03T08:34:23.886Z,28192
2017-05-03T08:35:34.508Z,26080
2017-05-03T08:36:45.385Z,42784
2017-05-03T08:37:56.247Z,28320
2017-05-03T08:39:07.087Z,33504
2017-05-03T08:40:18.310Z,45472
2017-05-03T08:41:29.180Z,26784
2017-05-03T08:42:40.031Z,49920
2017-05-03T08:43:50.870Z,48320
2017-05-03T08:45:01.774Z,28832
2017-05-03T08:46:12.945Z,22080
2017-05-03T08:47:23.782Z,22112
2017-05-03T08:48:34.957Z,28032
2017-05-03T08:49:45.856Z,29376
2017-05-03T08:50:56.696Z,58464
2017-05-03T08:52:07.943Z,28160
2017-05-03T08:53:18.846Z,25088
2017-05-03T08:54:29.696Z,21408
2017-05-03T08:55:40.620Z,18944
2017-05-03T08:56:51.430Z,18176
2017-05-03T08:58:02.249Z,26368
2017-05-03T08:59:13.159Z,21792
2017-05-03T09:00:24.236Z,21696
2017-05-03T09:01:35.055Z,22624
2017-05-03T09:02:45.639Z,25984
2017-05-03T09:03:56.736Z,19584
2017-05-03T09:05:07.247Z,20320
2017-05-03T09:06:17.846Z,19200
2017-05-03T09:07:28.267Z,18144
2017-05-03T09:08:39.123Z,18496
2017-05-03T09:09:49.868Z,20256
2017-05-03T09:11:00.719Z,24992
2017-05-03T09:12:11.569Z,31488
2017-05-03T09:13:22.388Z,44000
2017-05-03T09:14:32.763Z,33408
2017-05-03T09:15:43.848Z,37984
2017-05-03T09:16:54.796Z,31840
2017-05-03T09:18:05.676Z,37120
2017-05-03T09:19:16.712Z,33568
2017-05-03T09:20:27.227Z,35616
2017-05-03T09:21:38.481Z,33376
2017-05-03T09:22:49.399Z,34560
2017-05-03T09:24:00.242Z,27776
2017-05-03T09:25:11.089Z,24384
2017-05-03T09:26:21.961Z,22144
2017-05-03T09:27:32.795Z,20736
2017-05-03T09:28:43.644Z,18112
2017-05-03T09:29:54.203Z,21760
2017-05-03T09:31:05.084Z,32896
2017-05-03T09:32:15.929Z,22016
2017-05-03T09:33:26.687Z,23008
2017-05-03T09:34:37.531Z,23904
2017-05-03T09:35:48.361Z,19200
2017-05-03T09:36:59.211Z,16256
2017-05-03T09:38:10.060Z,21312
2017-05-03T09:39:21.320Z,20768
2017-05-03T09:40:32.212Z,19040
2017-05-03T09:41:42.724Z,18496
2017-05-03T09:42:53.582Z,23136
2017-05-03T09:44:04.521Z,18624
2017-05-03T09:45:15.654Z,17152
2017-05-03T09:46:26.505Z,22432
2017-05-03T09:47:37.351Z,24384
2017-05-03T09:48:48.240Z,28160
2017-05-03T09:49:58.876Z,26016
2017-05-03T09:51:09.727Z,25760
2017-05-03T09:52:20.195Z,91424
2017-05-03T09:53:30.292Z,35552
2017-05-03T09:54:40.774Z,87968
2017-05-03T09:55:51.773Z,38272
2017-05-03T09:57:02.095Z,46720
2017-05-03T09:58:12.555Z,42592
2017-05-03T09:59:23.433Z,32128
2017-05-03T10:00:34.300Z,49952
2017-05-03T10:01:44.881Z,50528
2017-05-03T10:02:56.052Z,32896
2017-05-03T10:04:06.561Z,24576
2017-05-03T10:05:17.405Z,30368
2017-05-03T10:06:28.274Z,25280
2017-05-03T10:07:38.830Z,19840
2017-05-03T10:08:49.957Z,20928
2017-05-03T10:10:00.913Z,18688
2017-05-03T10:11:11.302Z,18976
2017-05-03T10:12:22.217Z,21248
2017-05-03T10:13:33.080Z,25920
2017-05-03T10:14:44.024Z,48512
2017-05-03T10:15:54.953Z,49056
2017-05-03T10:17:05.808Z,68480
2017-05-03T10:18:16.663Z,46272
2017-05-03T10:19:27.509Z,37344
2017-05-03T10:20:38.206Z,74080
2017-05-03T10:21:48.769Z,66656
2017-05-03T10:22:59.625Z,78624
2017-05-03T10:24:10.149Z,91968
2017-05-03T10:25:20.526Z,65888
2017-05-03T10:26:31.663Z,65856
2017-05-03T10:27:42.543Z,36128
2017-05-03T10:28:52.811Z,28992
2017-05-03T10:30:03.700Z,39872
2017-05-03T10:31:14.546Z,79520
2017-05-03T10:32:25.329Z,29440
2017-05-03T10:33:35.951Z,33888
2017-05-03T10:34:46.711Z,98368
2017-05-03T10:35:57.600Z,74112
2017-05-03T10:37:08.451Z,25920
2017-05-03T10:38:19.279Z,35264
2017-05-03T10:39:30.173Z,32832
2017-05-03T10:40:40.694Z,43264
2017-05-03T10:41:51.621Z,79872
2017-05-03T10:43:02.528Z,84960
2017-05-03T10:44:13.223Z,84896
2017-05-03T10:45:24.170Z,82240
2017-05-03T10:46:35.019Z,80480
2017-05-03T10:47:46.026Z,64960
2017-05-03T10:48:56.548Z,61312
2017-05-03T10:50:06.838Z,82528
2017-05-03T10:51:17.725Z,81696
2017-05-03T10:52:28.630Z,87680
2017-05-03T10:53:39.511Z,91648
2017-05-03T10:54:50.074Z,84288
2017-05-03T10:56:00.952Z,69440
2017-05-03T10:57:11.894Z,63968
2017-05-03T10:58:22.477Z,60448
2017-05-03T10:59:33.004Z,63904
2017-05-03T11:00:43.850Z,66560
2017-05-03T11:01:55.266Z,62528
2017-05-03T11:03:06.196Z,63744
2017-05-03T11:04:17.151Z,71200
2017-05-03T11:05:28.086Z,77088
2017-05-03T11:06:38.654Z,66848
2017-05-03T11:07:49.822Z,63552
2017-05-03T11:09:00.707Z,57632
2017-05-03T11:10:11.650Z,51680
2017-05-03T11:11:22.543Z,51648
2017-05-03T11:12:33.436Z,49024
2017-05-03T11:13:44.266Z,49568
2017-05-03T11:14:55.121Z,48448
2017-05-03T11:16:06.009Z,47904
2017-05-03T11:17:16.535Z,49120
2017-05-03T11:18:27.460Z,49024
2017-05-03T11:19:38.653Z,46592
2017-05-03T11:20:49.735Z,44928
2017-05-03T11:22:00.190Z,47712
2017-05-03T11:23:11.149Z,53056
2017-05-03T11:24:21.998Z,53984
2017-05-03T11:25:33.202Z,48896
2017-05-03T11:26:44.101Z,49184
2017-05-03T11:27:54.947Z,51168
2017-05-03T11:29:05.846Z,34496
2017-05-03T11:30:16.718Z,48128
2017-05-03T11:31:27.835Z,48576
2017-05-03T11:32:38.699Z,47712
2017-05-03T11:33:49.594Z,51264
2017-05-03T11:35:00.157Z,54304
2017-05-03T11:36:11.085Z,54720
2017-05-03T11:37:22.249Z,54048
2017-05-03T11:38:33.167Z,57600
2017-05-03T11:39:44.126Z,61856
2017-05-03T11:40:54.333Z,66336
2017-05-03T11:42:05.177Z,64032
2017-05-03T11:43:16.345Z,63040
2017-05-03T11:44:27.204Z,61472
2017-05-03T11:45:37.402Z,54688
2017-05-03T11:46:47.973Z,56960
2017-05-03T11:47:58.873Z,59456
2017-05-03T11:49:10.042Z,59616
2017-05-03T11:50:20.963Z,55328
2017-05-03T11:51:31.824Z,55584
2017-05-03T11:52:42.709Z,62848
2017-05-03T11:53:53.590Z,54560
2017-05-03T11:55:04.776Z,45024
2017-05-03T11:56:15.636Z,47936
2017-05-03T11:57:25.851Z,51360
2017-05-03T11:58:36.291Z,56192
2017-05-03T11:59:47.219Z,52096
2017-05-03T12:00:58.500Z,52352
2017-05-03T12:02:09.086Z,51136
2017-05-03T12:03:20.020Z,45056
2017-05-03T12:04:30.552Z,40416
2017-05-03T12:05:41.555Z,39552
2017-05-03T12:06:52.729Z,44352
2017-05-03T12:08:03.617Z,45696
2017-05-03T12:09:14.488Z,39424
2017-05-03T12:10:25.396Z,38496
2017-05-03T12:11:35.856Z,38176
2017-05-03T12:12:46.348Z,37184
2017-05-03T12:13:57.375Z,34464
2017-05-03T12:15:07.772Z,30432
2017-05-03T12:16:18.649Z,26976
2017-05-03T12:17:29.438Z,28832
2017-05-03T12:18:40.679Z,33312
2017-05-03T12:19:51.553Z,35168
2017-05-03T12:21:02.123Z,31328
2017-05-03T12:22:12.878Z,35552
2017-05-03T12:23:23.450Z,33088
2017-05-03T12:24:34.618Z,37248
2017-05-03T12:25:45.475Z,35936
2017-05-03T12:26:56.315Z,31456
2017-05-03T12:28:07.928Z,32096
2017-05-03T12:29:18.785Z,29472
2017-05-03T12:30:29.994Z,32224
2017-05-03T12:31:40.935Z,31968
2017-05-03T12:32:51.793Z,33920
2017-05-03T12:34:02.769Z,34688
2017-05-03T12:35:13.638Z,38272
2017-05-03T12:36:25.027Z,39200
2017-05-03T12:37:35.430Z,35360
2017-05-03T12:38:45.514Z,25984
2017-05-03T12:39:56.402Z,29664
2017-05-03T12:41:07.262Z,26976
2017-05-03T12:42:18.360Z,25824
2017-05-03T12:43:29.238Z,26112
2017-05-03T12:44:40.097Z,26880
2017-05-03T12:45:50.605Z,27072
2017-05-03T12:47:01.446Z,27296
2017-05-03T12:48:12.334Z,28576
2017-05-03T12:49:23.411Z,27264
2017-05-03T12:50:34.256Z,25792
2017-05-03T12:51:45.115Z,22144
2017-05-03T12:52:55.629Z,21760
2017-05-03T12:54:06.796Z,21024
2017-05-03T12:55:17.655Z,21344
2017-05-03T12:56:28.168Z,21984
2017-05-03T12:57:38.852Z,23360
2017-05-03T12:58:49.702Z,23008
2017-05-03T13:00:00.471Z,25344
2017-05-03T13:01:11.315Z,26016
2017-05-03T13:02:22.195Z,26176
2017-05-03T13:03:33.219Z,26848
2017-05-03T13:04:43.786Z,26272
2017-05-03T13:05:54.597Z,24672
2017-05-03T13:07:05.500Z,24992
2017-05-03T13:08:16.358Z,25888
2017-05-03T13:09:26.781Z,28160
2017-05-03T13:10:37.290Z,31520
2017-05-03T13:11:48.104Z,34016
2017-05-03T13:12:58.950Z,35616
2017-05-03T13:14:09.832Z,36192
2017-05-03T13:15:20.736Z,34912
2017-05-03T13:16:31.680Z,33056
2017-05-03T13:17:42.352Z,36320
2017-05-03T13:18:52.866Z,36800
2017-05-03T13:20:03.846Z,27648
2017-05-03T13:21:14.807Z,49216
2017-05-03T13:22:25.350Z,50240
2017-05-03T13:23:36.461Z,46784
2017-05-03T13:24:47.331Z,44672
2017-05-03T13:25:58.246Z,44384
2017-05-03T13:27:09.405Z,30624
2017-05-03T13:28:20.305Z,51072
2017-05-03T13:29:31.033Z,52832
2017-05-03T13:30:41.588Z,37216
2017-05-03T13:31:52.488Z,41248
2017-05-03T13:33:02.555Z,32832
2017-05-03T13:34:13.445Z,28512
2017-05-03T13:35:24.543Z,34080
2017-05-03T13:36:35.073Z,56576
2017-05-03T13:37:45.967Z,58432
2017-05-03T13:38:57.003Z,41376
2017-05-03T13:40:07.533Z,66752
2017-05-03T13:41:18.471Z,23232
2017-05-03T13:42:29.504Z,17888
2017-05-03T13:43:40.351Z,19296
2017-05-03T13:44:50.917Z,25472
2017-05-03T13:46:01.460Z,64896
2017-05-03T13:47:12.682Z,70048
2017-05-03T13:48:23.539Z,76384
2017-05-03T13:49:34.411Z,71936
2017-05-03T13:50:45.389Z,61920
2017-05-03T13:51:56.287Z,33792
2017-05-03T13:53:07.507Z,20448
2017-05-03T13:54:17.909Z,18592
2017-05-03T13:55:28.163Z,20224
2017-05-03T13:56:39.039Z,24736
2017-05-03T13:57:48.809Z,53664
2017-05-03T13:58:59.666Z,68224
2017-05-03T14:00:10.514Z,87808
2017-05-03T14:01:21.418Z,88576
2017-05-03T14:02:32.354Z,29472
2017-05-03T14:03:43.209Z,43200
2017-05-03T14:04:54.026Z,54080
2017-05-03T14:06:04.921Z,40032
2017-05-03T14:07:15.812Z,59840
2017-05-03T14:08:26.673Z,63104
2017-05-03T14:09:37.307Z,63776
2017-05-03T14:10:48.542Z,62304
2017-05-03T14:11:59.094Z,65824
2017-05-03T14:13:09.155Z,56704
2017-05-03T14:14:20.052Z,63872
2017-05-03T14:15:30.905Z,56800
2017-05-03T14:16:41.564Z,70240
2017-05-03T14:17:52.436Z,24000
2017-05-03T14:19:03.579Z,72704
2017-05-03T14:20:14.435Z,62400
2017-05-03T14:21:24.941Z,76288
2017-05-03T14:22:36.127Z,82432
2017-05-03T14:23:46.718Z,65248
2017-05-03T14:24:57.600Z,49760
2017-05-03T14:26:08.509Z,22336
2017-05-03T14:27:19.372Z,41344
2017-05-03T14:28:30.276Z,24224
2017-05-03T14:29:40.915Z,20000
2017-05-03T14:30:51.881Z,59904
2017-05-03T14:32:02.505Z,54592
2017-05-03T14:33:13.379Z,19712
2017-05-03T14:34:24.729Z,16448
2017-05-03T14:35:35.645Z,58912
2017-05-03T14:36:46.565Z,45088
2017-05-03T14:37:57.641Z,52736
2017-05-03T14:39:08.575Z,59648
2017-05-03T14:40:19.742Z,59392
2017-05-03T14:41:30.196Z,54848
2017-05-03T14:42:41.071Z,49920
2017-05-03T14:43:51.493Z,53504
2017-05-03T14:45:02.385Z,59136
2017-05-03T14:46:13.530Z,60256
2017-05-03T14:47:24.448Z,62880
2017-05-03T14:48:35.331Z,56384
2017-05-03T14:49:46.182Z,29952
2017-05-03T14:50:56.256Z,30272
2017-05-03T14:52:07.026Z,13684
2017-05-03T14:53:17.915Z,12884
2017-05-03T14:54:28.788Z,13120
2017-05-03T14:55:39.652Z,13800
2017-05-03T14:56:50.192Z,14740
2017-05-03T14:58:01.385Z,16576
2017-05-03T14:59:12.230Z,18560
2017-05-03T15:00:23.241Z,23648
2017-05-03T15:01:34.102Z,28992
2017-05-03T15:02:44.963Z,22176
2017-05-03T15:03:55.788Z,20320
2017-05-03T15:05:06.636Z,20160
2017-05-03T15:06:17.566Z,19520
2017-05-03T15:07:28.455Z,18944
2017-05-03T15:08:39.307Z,18336
2017-05-03T15:09:50.076Z,17600
2017-05-03T15:11:00.629Z,17504
2017-05-03T15:12:11.481Z,16928
2017-05-03T15:13:22.331Z,17440
2017-05-03T15:14:33.234Z,16384
2017-05-03T15:15:44.524Z,15552
2017-05-03T15:16:55.405Z,16352
2017-05-03T15:18:06.399Z,16384
2017-05-03T15:19:16.578Z,15808
2017-05-03T15:20:27.642Z,15744
2017-05-03T15:21:38.862Z,15712
2017-05-03T15:22:49.728Z,14580
2017-05-03T15:24:00.672Z,11452
2017-05-03T15:25:11.663Z,9212
2017-05-03T15:26:22.568Z,7708
2017-05-03T15:27:33.744Z,7132
2017-05-03T15:28:44.460Z,7192
2017-05-03T15:29:55.051Z,7340
2017-05-03T15:31:05.976Z,7484
2017-05-03T15:32:16.842Z,7456
2017-05-03T15:33:28.010Z,7440
2017-05-03T15:34:38.675Z,7568
2017-05-03T15:35:48.908Z,7684
2017-05-03T15:36:59.802Z,7908
2017-05-03T15:38:10.706Z,8264
2017-05-03T15:39:21.832Z,8624
2017-05-03T15:40:32.587Z,8784
2017-05-03T15:41:43.501Z,8728
2017-05-03T15:42:54.100Z,8672
2017-05-03T15:44:05.015Z,8708